Time;durP1;ratioP1;P1;durP2;ratioP2;P2;SDS_P1;SDS_P2;PMS_P1;PMS_P2;Temp;Humidity;BMP_temperature;BMP_pressure;BME280_temperature;BME280_humidity;BME280_pressure;Samples;Min_cycle;Max_cycle;Signal;HPM_P1;HPM_P2
2023/05/01 00:04:24;;;;;;;6.43;5.83;;;;;;;14.33;44.30;99554.81;10418636;28;20235;-40
2023/05/01 00:09:29;;;;;;;6.87;6.17;;;;;;;13.88;44.91;99553.94;10418287;28;20692;-40
2023/05/01 00:14:30;;;;;;;6.67;5.97;;;;;;;13.81;44.54;99527.06;10424279;28;20226;-41
2023/05/01 00:19:32;;;;;;;7.57;6.27;;;;;;;14.48;44.06;99559.09;10427781;28;20230;-41
2023/05/01 00:24:34;;;;;;;7.03;6.33;;;;;;;15.27;42.99;99500.31;10423407;28;20223;-40
2023/05/01 00:29:35;;;;;;;6.90;6.30;;;;;;;13.40;44.42;99483.34;10423680;28;20208;-40
2023/05/01 00:34:37;;;;;;;7.37;6.57;;;;;;;14.21;44.02;99553.84;10426480;28;20235;-39
2023/05/01 00:39:39;;;;;;;7.13;6.37;;;;;;;15.49;43.25;99501.50;10402983;28;20593;-40
2023/05/01 00:44:40;;;;;;;6.80;6.10;;;;;;;13.49;45.33;99524.25;10423878;28;20677;-39
2023/05/01 00:49:43;;;;;;;7.37;6.33;;;;;;;13.51;45.50;99538.31;10416736;28;20216;-42
2023/05/01 00:55:09;;;;;;;6.83;6.13;;;;;;;13.50;45.87;99549.25;10417077;28;20215;-39
2023/05/01 01:00:12;;;;;;;7.20;6.50;;;;;;;12.03;47.07;99420.28;10416989;28;20222;-41
2023/05/01 01:06:16;;;;;;;6.40;5.80;;;;;;;14.45;44.25;99530.72;10416501;28;20620;-41
2023/05/01 01:11:49;;;;;;;7.87;6.43;;;;;;;13.47;46.22;99555.91;10366898;28;20204;-42
2023/05/01 01:17:03;;;;;;;7.40;6.60;;;;;;;12.47;47.06;99497.59;10411752;28;20228;-43
2023/05/01 01:22:11;;;;;;;6.93;6.13;;;;;;;13.26;45.34;99533.56;10419623;28;20212;-39
2023/05/01 01:27:38;;;;;;;7.30;6.60;;;;;;;12.39;47.56;99507.69;10425274;28;20275;-43
2023/05/01 01:33:21;;;;;;;8.13;6.17;;;;;;;12.11;48.54;99501.38;10408199;28;20208;-40
2023/05/01 01:38:33;;;;;;;7.80;7.00;;;;;;;11.45;49.53;99464.38;10416386;28;20212;-39
2023/05/01 01:43:42;;;;;;;7.47;6.77;;;;;;;12.38;48.50;99544.41;10417235;28;20235;-39
2023/05/01 01:48:48;;;;;;;8.63;7.17;;;;;;;11.83;49.07;99548.91;10419102;28;20223;-39
2023/05/01 01:53:55;;;;;;;8.00;7.20;;;;;;;11.99;48.55;99545.91;10418172;28;20267;-42
2023/05/01 01:59:01;;;;;;;9.13;7.17;;;;;;;11.78;49.22;99545.00;10421096;28;20814;-39
2023/05/01 02:04:04;;;;;;;8.07;6.87;;;;;;;11.97;48.83;99559.50;10406744;28;20832;-39
2023/05/01 02:09:08;;;;;;;10.17;7.90;;;;;;;11.87;48.99;99558.22;10430843;28;20703;-40
2023/05/01 02:14:13;;;;;;;8.73;7.00;;;;;;;11.52;49.27;99544.81;10416189;28;20226;-40
2023/05/01 02:19:17;;;;;;;8.90;7.23;;;;;;;11.98;49.52;99552.31;10413152;28;20212;-39
2023/05/01 02:24:22;;;;;;;8.07;7.27;;;;;;;11.15;50.80;99534.22;10428839;28;20235;-39
2023/05/01 02:29:25;;;;;;;8.70;7.47;;;;;;;11.63;49.32;99560.38;10407328;28;20207;-39
2023/05/01 02:34:28;;;;;;;9.27;7.47;;;;;;;11.22;50.28;99555.72;10415849;28;20278;-41
2023/05/01 02:39:30;;;;;;;8.93;7.27;;;;;;;11.08;50.70;99546.75;10416325;28;20204;-39
2023/05/01 02:44:40;;;;;;;8.67;6.90;;;;;;;11.85;49.41;99568.34;10422333;28;20234;-40
2023/05/01 02:49:45;;;;;;;8.40;7.40;;;;;;;12.23;49.11;99546.41;10422462;28;20207;-39
2023/05/01 02:54:48;;;;;;;8.20;7.00;;;;;;;11.18;50.63;99568.66;10413928;28;20232;-39
2023/05/01 02:59:50;;;;;;;9.40;6.97;;;;;;;11.30;50.34;99578.84;10425123;28;20222;-39
2023/05/01 03:04:52;;;;;;;6.97;6.27;;;;;;;11.05;50.37;99574.75;10423726;28;20702;-50
2023/05/01 03:09:54;;;;;;;6.93;5.90;;;;;;;10.65;51.33;99565.50;10426652;28;20208;-41
2023/05/01 03:14:56;;;;;;;7.03;6.33;;;;;;;11.82;49.91;99580.28;10421477;28;20230;-41
2023/05/01 03:19:59;;;;;;;9.57;7.90;;;;;;;11.77;49.87;99564.78;10424942;28;20214;-40
2023/05/01 03:25:03;;;;;;;10.53;6.23;;;;;;;11.62;49.79;99574.75;10420430;28;20282;-38
2023/05/01 03:30:06;;;;;;;6.30;5.67;;;;;;;11.71;49.50;99607.63;10417503;28;20211;-39
2023/05/01 03:35:31;;;;;;;6.63;5.90;;;;;;;11.20;50.11;99595.25;10419475;28;20216;-38
2023/05/01 03:40:34;;;;;;;5.70;5.20;;;;;;;12.46;49.03;99589.84;10413455;28;20220;-39
2023/05/01 03:45:36;;;;;;;6.07;5.57;;;;;;;11.75;49.38;99585.59;10416594;28;20228;-39
2023/05/01 03:50:38;;;;;;;6.73;6.03;;;;;;;12.18;48.42;99589.94;10424275;28;20211;-40
2023/05/01 03:55:40;;;;;;;6.90;6.10;;;;;;;11.64;50.05;99596.84;10421800;28;20246;-38
2023/05/01 04:00:42;;;;;;;6.07;5.47;;;;;;;11.75;50.08;99598.19;10428964;28;20208;-39
2023/05/01 04:05:44;;;;;;;6.30;5.70;;;;;;;11.37;49.30;99623.44;10422905;28;20220;-41
2023/05/01 04:10:46;;;;;;;5.73;5.13;;;;;;;11.19;50.00;99620.41;10422406;28;20306;-39
2023/05/01 04:15:48;;;;;;;6.30;5.70;;;;;;;11.69;49.27;99602.44;10423413;28;20225;-39
2023/05/01 04:20:51;;;;;;;6.80;5.03;;;;;;;12.09;48.83;99615.28;10420498;28;20845;-40
2023/05/01 04:25:52;;;;;;;5.87;5.27;;;;;;;12.05;48.81;99624.75;10420444;28;20243;-39
2023/05/01 04:30:56;;;;;;;5.70;5.10;;;;;;;12.37;48.33;99634.00;10421750;28;20211;-41
2023/05/01 04:35:58;;;;;;;5.00;4.50;;;;;;;11.62;48.87;99633.72;10426333;28;20322;-40
2023/05/01 04:41:00;;;;;;;5.70;5.10;;;;;;;11.58;48.77;99640.50;10420521;28;20212;-39
2023/05/01 04:46:03;;;;;;;6.07;4.60;;;;;;;11.40;49.19;99641.78;10421440;28;20618;-38
2023/05/01 04:51:06;;;;;;;4.90;4.40;;;;;;;11.75;48.89;99665.19;10430445;28;20204;-41
2023/05/01 04:56:07;;;;;;;5.50;5.00;;;;;;;12.11;48.54;99656.13;10423196;28;20227;-38
2023/05/01 05:01:10;;;;;;;5.13;4.63;;;;;;;12.30;48.41;99671.53;10427014;28;20299;-38
2023/05/01 05:06:12;;;;;;;6.07;5.00;;;;;;;12.65;47.80;99686.75;10418298;28;20228;-38
2023/05/01 05:11:15;;;;;;;5.50;4.93;;;;;;;12.46;48.42;99678.41;10418533;28;20336;-40
2023/05/01 05:16:16;;;;;;;4.73;4.23;;;;;;;12.08;48.48;99670.78;10419591;28;20219;-41
2023/05/01 05:21:19;;;;;;;5.17;4.43;;;;;;;12.36;47.92;99667.19;10417930;28;20287;-40
2023/05/01 05:26:21;;;;;;;4.87;4.47;;;;;;;11.54;49.88;99669.53;10425602;28;20235;-38
2023/05/01 05:31:24;;;;;;;4.37;3.90;;;;;;;12.86;47.10;99656.28;10425807;28;20211;-38
2023/05/01 05:36:27;;;;;;;4.20;3.80;;;;;;;14.02;45.64;99708.91;10421658;28;20220;-38
2023/05/01 05:41:29;;;;;;;4.47;4.07;;;;;;;12.50;48.25;99674.34;10430698;28;20240;-41
2023/05/01 05:46:31;;;;;;;5.33;4.20;;;;;;;13.23;46.70;99670.19;10426197;28;20226;-39
2023/05/01 05:51:33;;;;;;;4.97;4.03;;;;;;;13.01;47.27;99658.78;10423797;28;20270;-42
2023/05/01 05:56:35;;;;;;;4.50;4.10;;;;;;;13.26;46.75;99689.44;10424619;28;20323;-39
2023/05/01 06:01:38;;;;;;;4.73;4.20;;;;;;;13.16;47.29;99688.16;10418659;28;20208;-41
2023/05/01 06:06:41;;;;;;;4.37;3.97;;;;;;;14.45;44.98;99716.47;10423435;28;20709;-40
2023/05/01 06:11:44;;;;;;;4.27;3.93;;;;;;;13.27;47.00;99676.81;10422526;28;20223;-39
2023/05/01 06:16:46;;;;;;;4.87;4.20;;;;;;;14.31;45.02;99675.31;10435580;22;20243;-37
2023/05/01 06:21:48;;;;;;;4.40;3.70;;;;;;;14.24;45.24;99631.47;10381776;28;21001;-38
2023/05/01 06:26:50;;;;;;;4.40;4.00;;;;;;;14.11;45.47;99608.13;10375820;28;20331;-37
2023/05/01 06:31:53;;;;;;;4.57;4.17;;;;;;;14.35;45.53;99617.31;10331904;28;20219;-37
2023/05/01 06:36:54;;;;;;;6.13;4.47;;;;;;;15.87;42.53;99586.81;10330280;28;20306;-37
2023/05/01 06:41:56;;;;;;;6.13;4.63;;;;;;;14.69;44.49;99627.94;10334129;28;20355;-37
2023/05/01 06:47:00;;;;;;;4.97;4.03;;;;;;;15.48;43.37;99578.03;10333150;28;20240;-36
2023/05/01 06:52:02;;;;;;;5.43;4.10;;;;;;;15.35;43.71;99597.03;10315597;28;20234;-37
2023/05/01 06:57:04;;;;;;;5.90;4.53;;;;;;;15.17;43.21;99578.13;10339533;28;20247;-38
2023/05/01 07:02:06;;;;;;;4.97;4.00;;;;;;;15.20;43.76;99596.53;10332221;28;20217;-37
2023/05/01 07:07:08;;;;;;;4.87;4.37;;;;;;;15.76;42.81;99543.56;10331663;28;20307;-36
2023/05/01 07:12:11;;;;;;;4.77;4.30;;;;;;;16.32;42.47;99584.88;10334898;28;20644;-37
2023/05/01 07:17:13;;;;;;;5.27;4.50;;;;;;;15.59;42.77;99519.06;10334513;28;20229;-39
2023/05/01 07:22:15;;;;;;;5.13;4.40;;;;;;;16.70;41.80;99498.13;10340463;28;20216;-39
2023/05/01 07:27:17;;;;;;;6.20;4.57;;;;;;;17.13;41.46;99531.31;10348137;28;20263;-37
2023/05/01 07:32:19;;;;;;;7.23;4.73;;;;;;;16.89;41.50;99485.34;10343196;28;20210;-38
2023/05/01 07:37:22;;;;;;;5.40;4.27;;;;;;;17.10;40.78;99470.44;10340674;28;20239;-38
2023/05/01 07:42:28;;;;;;;5.53;4.97;;;;;;;15.86;42.88;99554.69;10344279;28;20229;-38
2023/05/01 07:47:30;;;;;;;5.30;4.80;;;;;;;14.90;43.73;99484.06;10335737;28;20839;-38
2023/05/01 07:52:32;;;;;;;5.30;4.50;;;;;;;17.56;40.26;99476.00;10341672;28;20267;-37
2023/05/01 07:57:35;;;;;;;6.17;5.10;;;;;;;17.90;40.19;99476.22;10341385;28;20236;-36
2023/05/01 08:02:36;;;;;;;5.03;4.63;;;;;;;17.48;40.33;99443.94;10346090;28;20229;-37
2023/05/01 08:07:38;;;;;;;5.97;4.83;;;;;;;16.21;42.25;99535.97;10343070;28;20238;-37
2023/05/01 08:12:40;;;;;;;4.90;4.43;;;;;;;16.72;41.28;99446.53;10343374;28;20304;-37
2023/05/01 08:17:42;;;;;;;6.10;5.50;;;;;;;16.46;42.41;99494.53;10325702;28;20616;-37
2023/05/01 08:22:44;;;;;;;7.30;5.67;;;;;;;15.26;44.43;99522.91;10335767;28;20223;-38
2023/05/01 08:27:48;;;;;;;7.37;5.83;;;;;;;16.79;42.39;99493.19;10341328;28;20240;-37
2023/05/01 08:32:50;;;;;;;6.37;5.77;;;;;;;17.92;41.46;99468.66;10335986;28;20220;-38
2023/05/01 08:37:53;;;;;;;8.27;5.80;;;;;;;16.79;42.35;99458.88;10330579;28;20728;-37
2023/05/01 08:42:56;;;;;;;6.70;6.00;;;;;;;16.96;42.86;99437.41;10332332;28;20676;-37
2023/05/01 08:48:00;;;;;;;7.20;6.50;;;;;;;17.25;43.25;99444.81;10330083;28;20623;-38
2023/05/01 08:53:04;;;;;;;6.90;5.77;;;;;;;17.46;43.15;99454.16;10334405;28;20208;-38
2023/05/01 08:58:08;;;;;;;8.70;6.00;;;;;;;17.11;43.62;99433.44;10336235;28;20608;-38
2023/05/01 09:03:12;;;;;;;7.70;6.43;;;;;;;17.63;42.70;99417.25;10334406;28;20323;-37
2023/05/01 09:08:15;;;;;;;7.40;5.90;;;;;;;16.16;43.58;99408.97;10331676;28;20229;-37
2023/05/01 09:13:18;;;;;;;7.00;5.50;;;;;;;16.87;44.02;99414.50;10337391;28;20213;-37
2023/05/01 09:18:20;;;;;;;7.97;6.57;;;;;;;17.33;43.73;99423.63;10340183;28;20225;-37
2023/05/01 09:23:22;;;;;;;6.40;5.80;;;;;;;16.85;44.34;99400.38;10337496;28;20214;-38
2023/05/01 09:28:40;;;;;;;6.80;5.60;;;;;;;16.64;44.72;99417.19;10343649;28;20230;-38
2023/05/01 09:34:33;;;;;;;6.67;5.30;;;;;;;17.39;44.18;99439.97;10333524;28;20214;-36
2023/05/01 09:40:03;;;;;;;6.10;5.37;;;;;;;16.81;44.00;99435.16;10336042;28;20301;-36
2023/05/01 09:45:15;;;;;;;7.17;6.17;;;;;;;17.32;44.11;99426.56;10331307;28;20229;-38
2023/05/01 09:50:38;;;;;;;6.77;6.07;;;;;;;16.40;45.48;99434.16;10330128;28;20703;-37
2023/05/01 09:55:40;;;;;;;8.97;6.33;;;;;;;17.85;43.51;99421.97;10329050;28;20210;-37
2023/05/01 10:00:49;;;;;;;8.97;6.27;;;;;;;17.25;44.84;99396.94;10321042;28;20239;-37
2023/05/01 10:05:50;;;;;;;6.93;6.30;;;;;;;18.18;43.29;99428.53;10338338;28;20832;-38
2023/05/01 10:11:01;;;;;;;7.60;6.90;;;;;;;18.41;42.61;99366.13;10336207;28;21031;-37
2023/05/01 10:16:06;;;;;;;8.17;6.87;;;;;;;18.31;44.02;99348.91;10337313;28;20213;-37
2023/05/01 10:21:09;;;;;;;7.53;6.80;;;;;;;18.83;42.28;99311.44;10334265;28;20687;-38
2023/05/01 10:26:12;;;;;;;7.33;6.33;;;;;;;18.10;43.54;99362.88;10332702;28;20221;-38
2023/05/01 10:31:15;;;;;;;7.27;6.30;;;;;;;17.85;41.77;99332.66;10324042;28;20263;-38
2023/05/01 10:36:43;;;;;;;8.30;6.57;;;;;;;18.61;41.10;99292.47;10348775;28;20226;-37
2023/05/01 10:42:05;;;;;;;7.83;6.43;;;;;;;20.94;39.83;99320.75;10343598;28;20249;-37
2023/05/01 10:47:30;;;;;;;7.07;6.37;;;;;;;19.53;39.57;99233.03;10343846;28;20232;-37
2023/05/01 10:53:08;;;;;;;7.63;6.13;;;;;;;18.90;42.05;99267.09;10342965;28;20221;-37
2023/05/01 10:58:36;;;;;;;7.40;6.67;;;;;;;17.53;43.04;99269.03;10349886;28;20240;-38
2023/05/01 11:06:30;;;;;;;7.30;6.13;;;;;;;16.88;46.09;99415.31;10421851;28;20852;-68
2023/05/01 11:11:32;;;;;;;6.70;6.00;;;;;;;17.07;45.80;99397.91;10369326;28;20233;-68
2023/05/01 11:16:36;;;;;;;8.13;6.90;;;;;;;16.11;46.08;99408.84;10379497;28;20604;-69
2023/05/01 11:21:39;;;;;;;7.20;6.47;;;;;;;16.77;44.93;99366.44;10385510;28;20326;-73
2023/05/01 11:26:41;;;;;;;7.33;6.63;;;;;;;18.21;43.67;99360.34;10381820;28;20237;-66
2023/05/01 11:31:47;;;;;;;7.90;6.60;;;;;;;17.03;43.84;99361.63;10386889;28;20248;-68
2023/05/01 11:36:50;;;;;;;6.73;6.00;;;;;;;18.23;42.42;99264.25;10382492;28;20271;-67
2023/05/01 11:42:08;;;;;;;6.87;5.60;;;;;;;17.06;43.61;99395.47;10387295;28;20237;-68
2023/05/01 11:47:10;;;;;;;6.67;5.17;;;;;;;18.62;42.26;99294.13;10385316;28;20231;-68
2023/05/01 11:52:11;;;;;;;6.23;5.63;;;;;;;18.43;41.56;99271.88;10381436;28;20241;-68
2023/05/01 11:57:13;;;;;;;6.60;5.80;;;;;;;17.54;42.98;99321.25;10386790;28;20232;-67
2023/05/01 12:02:21;;;;;;;6.47;5.77;;;;;;;18.06;42.47;99290.53;10384964;28;20232;-68
2023/05/01 12:07:23;;;;;;;7.90;5.03;;;;;;;18.98;40.65;99281.03;10375864;28;20291;-67
2023/05/01 12:12:25;;;;;;;6.00;5.40;;;;;;;17.51;42.59;99305.50;10384137;28;20228;-67
2023/05/01 12:17:28;;;;;;;6.70;5.97;;;;;;;19.14;41.39;99256.81;10333093;28;20605;-67
2023/05/01 12:22:30;;;;;;;6.40;5.80;;;;;;;17.92;41.80;99347.69;10363611;28;20233;-69
2023/05/01 12:27:44;;;;;;;7.27;6.57;;;;;;;18.26;41.54;99327.94;10357204;28;20609;-68
2023/05/01 12:32:46;;;;;;;7.37;5.73;;;;;;;18.00;41.87;99332.09;10357199;28;20230;-67
2023/05/01 12:37:47;;;;;;;6.80;6.10;;;;;;;17.60;42.11;99352.75;10355695;28;20320;-67
2023/05/01 12:42:56;;;;;;;9.20;6.23;;;;;;;18.79;41.47;99266.97;10353612;28;20235;-68
2023/05/01 12:47:58;;;;;;;7.87;7.00;;;;;;;20.76;39.21;99283.94;10359031;28;20236;-67
2023/05/01 12:53:04;;;;;;;7.63;6.83;;;;;;;19.28;40.64;99292.47;10359716;28;20244;-69
2023/05/01 12:58:05;;;;;;;7.43;6.73;;;;;;;18.80;41.56;99273.19;10359470;28;20681;-67
2023/05/01 13:03:07;;;;;;;8.47;7.67;;;;;;;18.18;43.19;99331.88;10352971;28;20746;-68
2023/05/01 13:08:08;;;;;;;8.07;7.27;;;;;;;19.89;41.05;99218.97;10355063;28;20220;-69
2023/05/01 13:13:10;;;;;;;7.77;6.97;;;;;;;20.11;39.18;99216.16;10353680;28;20236;-67
2023/05/01 13:18:12;;;;;;;8.00;7.20;;;;;;;19.85;40.19;99247.75;10355995;28;20233;-67
2023/05/01 13:23:14;;;;;;;7.67;6.63;;;;;;;19.47;40.50;99206.13;10354855;28;20735;-68
2023/05/01 13:28:18;;;;;;;8.17;6.47;;;;;;;20.27;40.15;99219.81;10355486;28;20237;-67
2023/05/01 13:33:20;;;;;;;9.00;7.03;;;;;;;20.73;38.59;99205.63;10351221;28;20229;-67
2023/05/01 13:38:23;;;;;;;8.90;6.67;;;;;;;19.99;39.89;99174.78;10352317;28;20256;-68
2023/05/01 13:43:26;;;;;;;8.93;6.67;;;;;;;20.58;40.05;99174.59;10356240;28;20320;-69
2023/05/01 13:48:30;;;;;;;7.95;7.18;;;;;;;21.11;37.84;99174.47;10359552;28;20240;-69
2023/05/01 13:53:32;;;;;;;9.17;7.37;;;;;;;19.06;40.96;99260.78;10381888;28;20240;-69
2023/05/01 13:58:34;;;;;;;7.67;6.87;;;;;;;19.56;40.76;99254.28;10357190;28;20229;-68
2023/05/01 14:03:40;;;;;;;7.07;6.37;;;;;;;18.20;43.11;99250.38;10358054;28;20259;-69
2023/05/01 14:08:43;;;;;;;6.27;5.63;;;;;;;17.45;45.55;99331.66;10356925;28;20252;-68
2023/05/01 14:13:46;;;;;;;5.03;4.27;;;;;;;16.49;46.36;99333.91;10354723;28;20233;-67
2023/05/01 14:18:48;;;;;;;5.57;4.20;;;;;;;13.46;50.05;99247.84;10353078;28;20290;-69
2023/05/01 14:23:53;;;;;;;8.60;5.23;;;;;;;17.20;46.73;99293.28;10351727;28;20237;-69
2023/05/01 14:28:55;;;;;;;5.03;3.53;;;;;;;17.86;45.03;99266.66;10354139;28;20825;-69
2023/05/01 14:34:02;;;;;;;4.33;3.93;;;;;;;17.26;45.92;99263.41;10350109;28;20233;-70
2023/05/01 14:39:04;;;;;;;3.47;3.10;;;;;;;18.46;43.95;99279.50;10355369;28;20206;-70
2023/05/01 14:44:09;;;;;;;3.90;3.33;;;;;;;18.27;45.32;99265.41;10357901;28;20235;-72
2023/05/01 14:49:17;;;;;;;3.30;3.00;;;;;;;17.57;45.07;99296.44;10353813;28;20241;-71
2023/05/01 14:54:19;;;;;;;3.47;3.00;;;;;;;16.98;44.30;99331.78;10350282;28;20244;-68
2023/05/01 14:59:23;;;;;;;3.40;3.10;;;;;;;17.97;42.81;99249.50;10351260;28;20237;-66
2023/05/01 15:05:28;;;;;;;5.10;4.40;;;;;;;14.31;51.25;99433.09;10511451;27;2068193;-70
2023/05/01 15:10:31;;;;;;;5.33;4.50;;;;;;;15.28;49.21;99386.03;10501285;28;20242;-71
2023/05/01 15:15:32;;;;;;;6.10;4.17;;;;;;;15.98;48.39;99350.47;10461246;28;20227;-66
2023/05/01 15:20:34;;;;;;;4.40;3.67;;;;;;;15.32;48.11;99371.88;10465888;28;20813;-70
2023/05/01 15:25:36;;;;;;;3.80;3.40;;;;;;;16.04;47.33;99384.66;10465073;28;20235;-71
2023/05/01 15:30:37;;;;;;;3.57;3.17;;;;;;;16.72;45.76;99371.72;10469568;28;20232;-68
2023/05/01 15:35:39;;;;;;;4.03;3.40;;;;;;;15.63;47.94;99409.69;10504789;28;20624;-70
2023/05/01 15:40:42;;;;;;;5.13;4.20;;;;;;;16.15;47.71;99396.53;10506402;28;20226;-70
2023/05/01 15:45:43;;;;;;;3.73;3.43;;;;;;;16.84;47.68;99396.03;10505132;28;20239;-68
2023/05/01 15:50:45;;;;;;;3.50;3.20;;;;;;;16.84;46.28;99374.44;10484827;28;20210;-69
2023/05/01 15:55:50;;;;;;;3.13;2.60;;;;;;;16.63;45.64;99375.81;10463967;28;20462;-69
2023/05/01 16:00:52;;;;;;;8.77;5.77;;;;;;;15.34;47.78;99468.69;10499946;28;20237;-68
2023/05/01 16:05:55;;;;;;;5.27;4.07;;;;;;;15.67;47.74;99456.72;10496257;28;20674;-68
2023/05/01 16:10:57;;;;;;;6.27;4.63;;;;;;;14.42;51.38;99495.34;10501658;28;20230;-69
2023/05/01 16:16:00;;;;;;;6.77;4.90;;;;;;;15.54;51.72;99467.63;10481251;28;20729;-70
2023/05/01 16:21:02;;;;;;;7.13;5.30;;;;;;;13.25;55.15;99456.69;10474043;28;20714;-70
2023/05/01 16:26:05;;;;;;;5.17;4.67;;;;;;;13.69;53.42;99499.19;10467946;28;20239;-69
2023/05/01 16:31:07;;;;;;;5.37;4.80;;;;;;;15.70;51.88;99485.94;10474838;28;20215;-69
2023/05/01 16:36:27;;;;;;;5.43;4.93;;;;;;;18.10;47.88;99429.72;10468380;28;20268;-67
2023/05/01 16:41:29;;;;;;;8.27;5.20;;;;;;;17.37;48.73;99451.00;10470853;28;20226;-70
2023/05/01 16:46:32;;;;;;;5.73;4.87;;;;;;;18.04;48.11;99406.38;10472170;28;20235;-69
2023/05/01 16:51:34;;;;;;;6.10;5.50;;;;;;;17.83;48.97;99362.69;10470323;28;20223;-69
2023/05/01 16:56:36;;;;;;;9.50;8.37;;;;;;;16.79;50.12;99458.88;10470025;28;20226;-69
2023/05/01 17:01:37;;;;;;;5.57;4.90;;;;;;;16.91;49.68;99475.09;10469913;28;20235;-69
2023/05/01 17:06:39;;;;;;;5.60;4.43;;;;;;;16.90;48.64;99481.56;10472706;28;20581;-68
2023/05/01 17:11:41;;;;;;;4.60;4.20;;;;;;;16.01;49.96;99525.44;10472252;28;20300;-68
2023/05/01 17:16:43;;;;;;;4.77;4.10;;;;;;;16.20;49.65;99523.50;10468741;28;20256;-67
2023/05/01 17:21:47;;;;;;;5.00;4.50;;;;;;;16.76;48.61;99520.66;10472608;28;20235;-66
2023/05/01 17:26:49;;;;;;;6.90;5.10;;;;;;;15.49;50.44;99535.75;10471800;28;20235;-67
2023/05/01 17:31:50;;;;;;;4.83;4.20;;;;;;;16.25;49.91;99564.16;10468180;28;20231;-67
2023/05/01 17:36:52;;;;;;;4.47;3.73;;;;;;;18.32;45.48;99485.94;10469364;28;20243;-67
2023/05/01 17:41:57;;;;;;;7.13;6.33;;;;;;;17.85;47.09;99482.34;10471666;28;20251;-67
2023/05/01 17:46:59;;;;;;;6.60;5.90;;;;;;;16.29;50.48;99486.25;10437061;28;20279;-67
2023/05/01 17:52:01;;;;;;;7.47;5.63;;;;;;;17.73;48.53;99463.44;10461747;28;20757;-66
2023/05/01 17:57:02;;;;;;;6.70;5.87;;;;;;;17.87;48.16;99480.22;10470333;28;20729;-67
2023/05/01 18:02:04;;;;;;;7.23;5.03;;;;;;;14.28;54.33;99538.50;10466931;28;20239;-68
2023/05/01 18:07:06;;;;;;;5.50;4.77;;;;;;;15.53;52.49;99553.13;10466230;28;20231;-69
2023/05/01 18:12:09;;;;;;;7.47;5.40;;;;;;;16.57;51.07;99538.84;10467482;28;20223;-67
2023/05/01 18:17:10;;;;;;;7.50;5.50;;;;;;;16.25;50.76;99509.34;10468590;28;20772;-67
2023/05/01 18:22:12;;;;;;;6.10;5.13;;;;;;;15.14;52.58;99528.19;10466685;28;20235;-67
2023/05/01 18:27:14;;;;;;;5.50;5.00;;;;;;;14.68;53.87;99580.53;10466628;28;20230;-67
2023/05/01 18:32:16;;;;;;;6.33;5.33;;;;;;;15.48;51.84;99550.25;10467859;28;20276;-68
2023/05/01 18:37:17;;;;;;;7.37;5.23;;;;;;;15.46;51.50;99574.75;10463319;28;20242;-68
2023/05/01 18:42:19;;;;;;;5.43;4.93;;;;;;;16.42;49.59;99518.47;10469553;28;20231;-68
2023/05/01 18:47:20;;;;;;;5.87;5.33;;;;;;;17.29;48.59;99575.75;10467237;28;20235;-66
2023/05/01 18:52:22;;;;;;;4.70;4.27;;;;;;;16.25;50.40;99603.84;10474326;28;20227;-66
2023/05/01 18:57:24;;;;;;;5.10;4.60;;;;;;;15.84;50.42;99589.97;10469780;28;20284;-67
2023/05/01 19:02:25;;;;;;;4.60;4.13;;;;;;;15.43;51.08;99587.84;10438195;28;20243;-66
2023/05/01 19:07:27;;;;;;;5.53;4.03;;;;;;;16.94;49.25;99628.69;10424581;28;20909;-66
2023/05/01 19:12:29;;;;;;;4.73;4.23;;;;;;;15.61;50.91;99635.66;10464253;28;20219;-66
2023/05/01 19:17:32;;;;;;;5.53;5.03;;;;;;;16.09;50.03;99593.63;10475683;28;20234;-66
2023/05/01 19:22:33;;;;;;;5.23;4.73;;;;;;;15.71;51.25;99676.44;10471864;28;20527;-65
2023/05/01 19:27:35;;;;;;;5.10;4.53;;;;;;;16.26;49.62;99635.19;10468387;28;20230;-66
2023/05/01 19:32:37;;;;;;;6.37;4.57;;;;;;;14.93;51.58;99656.00;10469450;28;20281;-65
2023/05/01 19:37:38;;;;;;;6.83;5.53;;;;;;;16.13;50.31;99684.75;10437024;28;20239;-66
2023/05/01 19:42:40;;;;;;;7.83;6.70;;;;;;;17.41;47.97;99711.00;10434116;28;20349;-65
2023/05/01 19:47:42;;;;;;;6.03;5.43;;;;;;;16.06;50.32;99700.16;10433723;28;20231;-67
2023/05/01 19:52:44;;;;;;;7.13;5.30;;;;;;;16.27;49.63;99698.13;10441889;28;20236;-66
2023/05/01 19:57:45;;;;;;;5.83;5.27;;;;;;;17.04;48.35;99701.16;10438131;28;20236;-65
2023/05/01 20:02:47;;;;;;;6.20;5.50;;;;;;;15.68;50.44;99706.53;10432217;28;20247;-64
2023/05/01 20:07:49;;;;;;;7.17;6.47;;;;;;;15.84;49.81;99687.09;10439404;28;20319;-65
2023/05/01 20:12:51;;;;;;;8.00;6.40;;;;;;;16.53;49.59;99705.91;10437306;28;20676;-65
2023/05/01 20:17:52;;;;;;;6.67;5.97;;;;;;;16.20;49.80;99684.66;10439135;28;20243;-65
2023/05/01 20:23:08;;;;;;;5.57;4.97;;;;;;;17.22;47.81;99700.25;10440832;28;20236;-68
2023/05/01 20:28:11;;;;;;;7.93;5.67;;;;;;;15.72;50.24;99690.72;10442238;28;20243;-68
2023/05/01 20:33:13;;;;;;;8.83;6.90;;;;;;;16.94;48.43;99714.34;10437938;28;20235;-70
2023/05/01 20:38:15;;;;;;;8.13;6.00;;;;;;;15.59;50.54;99713.22;10437564;28;20204;-70
2023/05/01 20:43:17;;;;;;;5.60;5.10;;;;;;;15.09;52.37;99740.91;10479264;28;20223;-70
2023/05/01 20:48:19;;;;;;;7.33;6.10;;;;;;;14.68;52.48;99728.66;10484022;28;20238;-70
2023/05/01 20:53:21;;;;;;;6.57;5.90;;;;;;;16.27;50.05;99738.63;10472912;28;20223;-70
2023/05/01 20:58:22;;;;;;;7.37;6.67;;;;;;;17.07;48.55;99762.84;10396134;22;20738;-39
2023/05/01 21:03:24;;;;;;;16.63;11.33;;;;;;;14.68;52.36;99769.03;10344795;28;20238;-39
2023/05/01 21:08:26;;;;;;;6.40;5.70;;;;;;;16.00;50.64;99769.34;10319397;28;20218;-39
2023/05/01 21:13:30;;;;;;;6.53;5.90;;;;;;;16.98;47.94;99773.16;10320579;28;20309;-39
2023/05/01 21:18:32;;;;;;;8.20;6.87;;;;;;;16.08;49.32;99760.16;10317122;28;20248;-39
2023/05/01 21:23:35;;;;;;;7.00;6.00;;;;;;;14.25;53.21;99783.81;10316674;28;20234;-39
2023/05/01 21:28:37;;;;;;;6.47;5.70;;;;;;;14.16;53.24;99788.59;10299248;28;20707;-39
2023/05/01 21:33:44;;;;;;;7.77;6.07;;;;;;;15.08;52.64;99795.84;10320019;28;20241;-39
2023/05/01 21:38:46;;;;;;;6.53;5.77;;;;;;;15.14;51.94;99776.13;10320572;28;20296;-39
2023/05/01 21:43:48;;;;;;;8.07;5.83;;;;;;;16.63;49.01;99789.13;10318278;28;20241;-39
2023/05/01 21:48:52;;;;;;;8.70;6.47;;;;;;;16.65;48.54;99780.78;10317444;28;20234;-39
2023/05/01 21:53:54;;;;;;;7.50;6.37;;;;;;;16.36;49.24;99786.69;10314722;28;20233;-39
2023/05/01 21:59:01;;;;;;;7.80;6.07;;;;;;;15.16;51.61;99810.97;10317796;28;20242;-39
2023/05/01 22:04:03;;;;;;;8.90;6.00;;;;;;;17.23;47.68;99836.28;10317673;28;20271;-39
2023/05/01 22:09:04;;;;;;;7.07;6.33;;;;;;;16.00;49.04;99765.84;10319613;28;20619;-39
2023/05/01 22:14:06;;;;;;;9.57;6.30;;;;;;;16.88;47.69;99789.03;10300950;28;20245;-39
2023/05/01 22:19:08;;;;;;;7.17;6.47;;;;;;;15.93;49.41;99770.47;10318020;28;20325;-39
2023/05/01 22:24:10;;;;;;;7.47;6.10;;;;;;;16.27;49.39;99812.34;10314735;28;20238;-39
2023/05/01 22:29:12;;;;;;;7.70;6.37;;;;;;;16.49;48.36;99815.44;10319094;28;20239;-39
2023/05/01 22:34:14;;;;;;;9.67;6.77;;;;;;;15.05;50.91;99820.53;10311442;28;20274;-39
2023/05/01 22:39:15;;;;;;;7.40;6.63;;;;;;;15.18;50.77;99833.13;10316813;28;20233;-39
2023/05/01 22:44:18;;;;;;;9.30;7.00;;;;;;;14.57;51.55;99803.63;10316360;28;20321;-39
2023/05/01 22:49:23;;;;;;;6.90;6.20;;;;;;;15.33;50.44;99823.75;10317025;28;20218;-39
2023/05/01 22:54:24;;;;;;;7.83;7.00;;;;;;;15.31;50.30;99816.91;10313745;28;20729;-39
2023/05/01 22:59:26;;;;;;;7.83;7.07;;;;;;;16.20;49.01;99795.34;10317525;28;20234;-39
2023/05/01 23:04:28;;;;;;;7.37;6.57;;;;;;;16.93;47.46;99862.16;10314822;28;20234;-39
2023/05/01 23:09:30;;;;;;;7.63;6.63;;;;;;;17.05;47.22;99834.41;10313390;28;20248;-40
2023/05/01 23:14:40;;;;;;;8.33;6.23;;;;;;;16.92;47.04;99833.50;10314497;28;20741;-39
2023/05/01 23:19:42;;;;;;;7.40;6.47;;;;;;;16.98;46.37;99839.91;10314442;28;20700;-39
2023/05/01 23:24:47;;;;;;;7.20;6.50;;;;;;;16.92;46.14;99825.41;10317377;28;20242;-39
2023/05/01 23:29:55;;;;;;;7.07;6.37;;;;;;;16.93;46.48;99827.03;10322094;28;20230;-39
2023/05/01 23:35:08;;;;;;;6.90;5.73;;;;;;;15.93;48.06;99797.47;10322460;28;20238;-40
2023/05/01 23:40:10;;;;;;;8.77;5.90;;;;;;;15.87;48.24;99802.66;10323061;28;20230;-39